sensor_id;sensor_type;location;lat;lon;timestamp;pressure;altitude;pressure_sealevel;temperature;humidity
59063;BME280;44851;45.648;9.004;2023-03-18T00:01:10;99262.59;;;7.97;48.66
59063;BME280;44851;45.648;9.004;2023-03-18T00:03:36;99263.28;;;7.88;48.70
59063;BME280;44851;45.648;9.004;2023-03-18T00:08:30;99265.41;;;7.83;49.21
59063;BME280;44851;45.648;9.004;2023-03-18T00:10:57;99265.19;;;7.86;48.91
59063;BME280;44851;45.648;9.004;2023-03-18T00:13:23;99258.91;;;7.88;48.36
59063;BME280;44851;45.648;9.004;2023-03-18T00:15:50;99259.28;;;7.84;48.83
59063;BME280;44851;45.648;9.004;2023-03-18T00:18:16;99262.31;;;7.78;49.16
59063;BME280;44851;45.648;9.004;2023-03-18T00:20:41;99261.88;;;7.84;48.79
59063;BME280;44851;45.648;9.004;2023-03-18T00:23:07;99260.00;;;7.86;48.35
59063;BME280;44851;45.648;9.004;2023-03-18T00:25:34;99248.66;;;7.76;48.82
59063;BME280;44851;45.648;9.004;2023-03-18T00:28:00;99253.84;;;7.76;49.21
59063;BME280;44851;45.648;9.004;2023-03-18T00:30:25;99253.84;;;7.76;48.89
59063;BME280;44851;45.648;9.004;2023-03-18T00:32:50;99251.78;;;7.68;49.05
59063;BME280;44851;45.648;9.004;2023-03-18T00:35:17;99254.16;;;7.71;48.95
59063;BME280;44851;45.648;9.004;2023-03-18T00:37:43;99249.28;;;7.55;49.32
59063;BME280;44851;45.648;9.004;2023-03-18T00:40:10;99243.63;;;7.61;49.07
59063;BME280;44851;45.648;9.004;2023-03-18T00:42:45;99247.50;;;7.56;49.45
59063;BME280;44851;45.648;9.004;2023-03-18T00:45:22;99248.78;;;7.50;49.31
59063;BME280;44851;45.648;9.004;2023-03-18T00:47:48;99253.03;;;7.51;49.42
59063;BME280;44851;45.648;9.004;2023-03-18T00:50:15;99245.25;;;7.51;49.36
59063;BME280;44851;45.648;9.004;2023-03-18T00:52:41;99252.94;;;7.53;48.90
59063;BME280;44851;45.648;9.004;2023-03-18T00:55:07;99245.72;;;7.45;49.37
59063;BME280;44851;45.648;9.004;2023-03-18T00:57:33;99247.13;;;7.49;49.17
59063;BME280;44851;45.648;9.004;2023-03-18T00:59:58;99251.81;;;7.33;49.61
59063;BME280;44851;45.648;9.004;2023-03-18T01:02:24;99249.91;;;7.35;49.36
59063;BME280;44851;45.648;9.004;2023-03-18T01:04:50;99248.09;;;7.48;48.91
59063;BME280;44851;45.648;9.004;2023-03-18T01:07:16;99244.88;;;7.44;49.12
59063;BME280;44851;45.648;9.004;2023-03-18T01:09:42;99240.03;;;7.40;49.04
59063;BME280;44851;45.648;9.004;2023-03-18T01:12:08;99236.69;;;7.27;49.21
59063;BME280;44851;45.648;9.004;2023-03-18T01:14:36;99237.41;;;7.29;48.88
59063;BME280;44851;45.648;9.004;2023-03-18T01:17:03;99236.47;;;7.30;49.34
59063;BME280;44851;45.648;9.004;2023-03-18T01:19:29;99233.16;;;7.28;49.19
59063;BME280;44851;45.648;9.004;2023-03-18T01:21:54;99236.91;;;7.24;49.00
59063;BME280;44851;45.648;9.004;2023-03-18T01:24:21;99232.34;;;7.27;48.68
59063;BME280;44851;45.648;9.004;2023-03-18T01:26:46;99224.09;;;7.33;48.46
59063;BME280;44851;45.648;9.004;2023-03-18T01:29:12;99224.47;;;7.40;48.59
59063;BME280;44851;45.648;9.004;2023-03-18T01:31:37;99221.88;;;7.40;48.76
59063;BME280;44851;45.648;9.004;2023-03-18T01:34:03;99218.13;;;7.44;48.93
59063;BME280;44851;45.648;9.004;2023-03-18T01:36:28;99210.22;;;7.45;48.76
59063;BME280;44851;45.648;9.004;2023-03-18T01:38:54;99211.28;;;7.43;49.18
59063;BME280;44851;45.648;9.004;2023-03-18T01:41:23;99209.66;;;7.42;49.12
59063;BME280;44851;45.648;9.004;2023-03-18T01:43:50;99209.81;;;7.28;49.05
59063;BME280;44851;45.648;9.004;2023-03-18T01:48:57;99194.25;;;7.16;49.08
59063;BME280;44851;45.648;9.004;2023-03-18T01:51:24;99191.91;;;7.25;49.29
59063;BME280;44851;45.648;9.004;2023-03-18T01:53:51;99191.19;;;7.23;49.32
59063;BME280;44851;45.648;9.004;2023-03-18T01:56:19;99186.50;;;7.28;49.39
59063;BME280;44851;45.648;9.004;2023-03-18T01:58:48;99188.38;;;7.26;49.94
59063;BME280;44851;45.648;9.004;2023-03-18T02:03:56;99179.19;;;7.33;49.61
59063;BME280;44851;45.648;9.004;2023-03-18T02:06:23;99176.34;;;7.25;49.56
59063;BME280;44851;45.648;9.004;2023-03-18T02:08:48;99180.03;;;7.33;50.05
59063;BME280;44851;45.648;9.004;2023-03-18T02:11:14;99178.72;;;7.28;49.71
59063;BME280;44851;45.648;9.004;2023-03-18T02:13:43;99172.59;;;7.29;49.75
59063;BME280;44851;45.648;9.004;2023-03-18T02:18:48;99169.22;;;7.04;49.77
59063;BME280;44851;45.648;9.004;2023-03-18T02:27:13;99156.25;;;6.93;49.82
59063;BME280;44851;45.648;9.004;2023-03-18T02:29:39;99158.06;;;6.80;50.08
59063;BME280;44851;45.648;9.004;2023-03-18T02:32:06;99159.22;;;6.76;49.90
59063;BME280;44851;45.648;9.004;2023-03-18T02:34:33;99155.69;;;6.77;50.19
59063;BME280;44851;45.648;9.004;2023-03-18T02:36:59;99150.75;;;6.74;49.93
59063;BME280;44851;45.648;9.004;2023-03-18T02:39:25;99148.16;;;6.74;50.07
59063;BME280;44851;45.648;9.004;2023-03-18T02:41:51;99141.81;;;6.78;49.79
59063;BME280;44851;45.648;9.004;2023-03-18T02:44:18;99146.09;;;6.90;49.46
59063;BME280;44851;45.648;9.004;2023-03-18T02:49:16;99147.19;;;6.75;50.33
59063;BME280;44851;45.648;9.004;2023-03-18T02:51:43;99144.25;;;6.68;49.94
59063;BME280;44851;45.648;9.004;2023-03-18T02:54:11;99149.53;;;6.66;50.00
59063;BME280;44851;45.648;9.004;2023-03-18T02:56:39;99149.09;;;6.73;49.82
59063;BME280;44851;45.648;9.004;2023-03-18T02:59:09;99131.28;;;6.68;49.71
59063;BME280;44851;45.648;9.004;2023-03-18T03:01:36;99141.47;;;6.58;50.17
59063;BME280;44851;45.648;9.004;2023-03-18T03:04:02;99140.97;;;6.53;50.60
59063;BME280;44851;45.648;9.004;2023-03-18T03:06:28;99142.38;;;6.46;50.30
59063;BME280;44851;45.648;9.004;2023-03-18T03:08:54;99135.69;;;6.55;50.43
59063;BME280;44851;45.648;9.004;2023-03-18T03:11:20;99129.91;;;6.51;50.51
59063;BME280;44851;45.648;9.004;2023-03-18T03:13:46;99139.19;;;6.66;50.04
59063;BME280;44851;45.648;9.004;2023-03-18T03:16:13;99137.50;;;6.65;50.24
59063;BME280;44851;45.648;9.004;2023-03-18T03:18:40;99139.34;;;6.52;50.52
59063;BME280;44851;45.648;9.004;2023-03-18T03:21:06;99137.41;;;6.43;50.80
59063;BME280;44851;45.648;9.004;2023-03-18T03:23:33;99133.44;;;6.50;50.72
59063;BME280;44851;45.648;9.004;2023-03-18T03:25:59;99132.22;;;6.43;50.55
59063;BME280;44851;45.648;9.004;2023-03-18T03:28:25;99131.63;;;6.39;50.97
59063;BME280;44851;45.648;9.004;2023-03-18T03:30:51;99136.94;;;6.49;50.79
59063;BME280;44851;45.648;9.004;2023-03-18T03:33:17;99136.13;;;6.49;50.82
59063;BME280;44851;45.648;9.004;2023-03-18T03:35:42;99140.47;;;6.48;50.70
59063;BME280;44851;45.648;9.004;2023-03-18T03:38:08;99130.56;;;6.42;50.96
59063;BME280;44851;45.648;9.004;2023-03-18T03:40:34;99130.94;;;6.49;50.76
59063;BME280;44851;45.648;9.004;2023-03-18T03:42:59;99139.28;;;6.41;51.19
59063;BME280;44851;45.648;9.004;2023-03-18T03:45:25;99135.88;;;6.40;51.53
59063;BME280;44851;45.648;9.004;2023-03-18T03:47:50;99125.41;;;6.42;50.97
59063;BME280;44851;45.648;9.004;2023-03-18T03:50:17;99128.47;;;6.47;50.96
59063;BME280;44851;45.648;9.004;2023-03-18T03:52:42;99134.09;;;6.41;50.76
59063;BME280;44851;45.648;9.004;2023-03-18T03:55:12;99136.38;;;6.46;50.80
59063;BME280;44851;45.648;9.004;2023-03-18T03:57:40;99140.44;;;6.37;51.16
59063;BME280;44851;45.648;9.004;2023-03-18T04:00:10;99145.41;;;6.40;50.95
59063;BME280;44851;45.648;9.004;2023-03-18T04:02:38;99139.72;;;6.35;51.29
59063;BME280;44851;45.648;9.004;2023-03-18T04:05:05;99126.47;;;6.27;51.34
59063;BME280;44851;45.648;9.004;2023-03-18T04:07:30;99121.31;;;6.27;51.47
59063;BME280;44851;45.648;9.004;2023-03-18T04:09:56;99124.06;;;6.36;51.44
59063;BME280;44851;45.648;9.004;2023-03-18T04:12:21;99123.75;;;6.41;51.47
59063;BME280;44851;45.648;9.004;2023-03-18T04:14:48;99125.09;;;6.34;51.80
59063;BME280;44851;45.648;9.004;2023-03-18T04:17:14;99116.13;;;6.27;52.18
59063;BME280;44851;45.648;9.004;2023-03-18T04:19:40;99114.03;;;6.32;52.27
59063;BME280;44851;45.648;9.004;2023-03-18T04:22:05;99102.75;;;6.33;52.18
59063;BME280;44851;45.648;9.004;2023-03-18T04:24:31;99110.31;;;6.36;52.20
59063;BME280;44851;45.648;9.004;2023-03-18T04:26:57;99109.03;;;6.41;52.16
59063;BME280;44851;45.648;9.004;2023-03-18T04:29:22;99114.03;;;6.32;52.38
59063;BME280;44851;45.648;9.004;2023-03-18T04:31:48;99107.41;;;6.40;52.26
59063;BME280;44851;45.648;9.004;2023-03-18T04:34:13;99110.56;;;6.44;51.87
59063;BME280;44851;45.648;9.004;2023-03-18T04:36:39;99109.66;;;6.45;51.93
59063;BME280;44851;45.648;9.004;2023-03-18T04:39:04;99106.31;;;6.43;52.20
59063;BME280;44851;45.648;9.004;2023-03-18T04:41:30;99100.25;;;6.55;51.54
59063;BME280;44851;45.648;9.004;2023-03-18T04:43:56;99111.06;;;6.49;51.46
59063;BME280;44851;45.648;9.004;2023-03-18T04:46:22;99103.22;;;6.51;51.62
59063;BME280;44851;45.648;9.004;2023-03-18T04:48:47;99110.34;;;6.47;51.48
59063;BME280;44851;45.648;9.004;2023-03-18T04:51:13;99106.31;;;6.43;51.89
59063;BME280;44851;45.648;9.004;2023-03-18T04:53:39;99108.91;;;6.43;51.91
59063;BME280;44851;45.648;9.004;2023-03-18T04:56:05;99113.16;;;6.44;51.83
59063;BME280;44851;45.648;9.004;2023-03-18T04:58:31;99121.66;;;6.46;51.52
59063;BME280;44851;45.648;9.004;2023-03-18T05:00:56;99112.56;;;6.40;51.41
59063;BME280;44851;45.648;9.004;2023-03-18T05:03:22;99113.41;;;6.41;51.64
59063;BME280;44851;45.648;9.004;2023-03-18T05:05:48;99108.41;;;6.38;52.05
59063;BME280;44851;45.648;9.004;2023-03-18T05:08:14;99107.97;;;6.44;51.89
59063;BME280;44851;45.648;9.004;2023-03-18T05:10:40;99118.34;;;6.44;51.43
59063;BME280;44851;45.648;9.004;2023-03-18T05:13:06;99108.41;;;6.38;52.15
59063;BME280;44851;45.648;9.004;2023-03-18T05:15:32;99106.13;;;6.46;52.27
59063;BME280;44851;45.648;9.004;2023-03-18T05:17:58;99107.56;;;6.50;52.14
59063;BME280;44851;45.648;9.004;2023-03-18T05:20:25;99105.88;;;6.49;51.95
59063;BME280;44851;45.648;9.004;2023-03-18T05:22:50;99102.78;;;6.44;51.76
59063;BME280;44851;45.648;9.004;2023-03-18T05:25:17;99106.22;;;6.45;51.95
59063;BME280;44851;45.648;9.004;2023-03-18T05:27:44;99100.50;;;6.52;52.10
59063;BME280;44851;45.648;9.004;2023-03-18T05:30:10;99098.69;;;6.41;52.48
59063;BME280;44851;45.648;9.004;2023-03-18T05:32:37;99099.31;;;6.45;52.51
59063;BME280;44851;45.648;9.004;2023-03-18T05:35:02;99097.22;;;6.50;52.83
59063;BME280;44851;45.648;9.004;2023-03-18T05:37:28;99099.94;;;6.36;53.51
59063;BME280;44851;45.648;9.004;2023-03-18T05:39:54;99100.28;;;6.31;53.39
59063;BME280;44851;45.648;9.004;2023-03-18T05:42:19;99099.78;;;6.50;53.38
59063;BME280;44851;45.648;9.004;2023-03-18T05:44:45;99101.97;;;6.43;53.47
59063;BME280;44851;45.648;9.004;2023-03-18T05:47:10;99109.03;;;6.41;53.54
59063;BME280;44851;45.648;9.004;2023-03-18T05:49:36;99118.63;;;6.52;53.41
59063;BME280;44851;45.648;9.004;2023-03-18T05:52:03;99121.09;;;6.54;53.49
59063;BME280;44851;45.648;9.004;2023-03-18T05:54:28;99119.41;;;6.41;53.31
59063;BME280;44851;45.648;9.004;2023-03-18T05:56:54;99124.56;;;6.41;53.43
59063;BME280;44851;45.648;9.004;2023-03-18T05:59:20;99122.09;;;6.40;53.08
59063;BME280;44851;45.648;9.004;2023-03-18T06:01:46;99122.31;;;6.37;53.45
59063;BME280;44851;45.648;9.004;2023-03-18T06:04:13;99121.88;;;6.43;53.06
59063;BME280;44851;45.648;9.004;2023-03-18T06:06:39;99119.41;;;6.41;52.93
59063;BME280;44851;45.648;9.004;2023-03-18T06:09:07;99125.19;;;6.45;52.67
59063;BME280;44851;45.648;9.004;2023-03-18T06:11:34;99118.13;;;6.47;52.50
59063;BME280;44851;45.648;9.004;2023-03-18T06:13:59;99123.09;;;6.50;52.91
59063;BME280;44851;45.648;9.004;2023-03-18T06:16:25;99120.84;;;6.46;53.00
59063;BME280;44851;45.648;9.004;2023-03-18T06:18:50;99122.38;;;6.48;53.37
59063;BME280;44851;45.648;9.004;2023-03-18T06:21:16;99112.06;;;6.59;53.43
59063;BME280;44851;45.648;9.004;2023-03-18T06:23:41;99132.78;;;6.59;53.34
59063;BME280;44851;45.648;9.004;2023-03-18T06:26:07;99132.19;;;6.56;53.49
59063;BME280;44851;45.648;9.004;2023-03-18T06:28:33;99127.13;;;6.65;53.45
59063;BME280;44851;45.648;9.004;2023-03-18T06:30:59;99131.22;;;6.81;53.64
59063;BME280;44851;45.648;9.004;2023-03-18T06:33:25;99135.25;;;6.85;53.12
59063;BME280;44851;45.648;9.004;2023-03-18T06:35:51;99135.03;;;6.88;53.48
59063;BME280;44851;45.648;9.004;2023-03-18T06:38:17;99135.72;;;6.90;53.19
59063;BME280;44851;45.648;9.004;2023-03-18T06:40:44;99141.28;;;6.97;53.37
59063;BME280;44851;45.648;9.004;2023-03-18T06:43:10;99136.03;;;7.09;53.96
59063;BME280;44851;45.648;9.004;2023-03-18T06:45:36;99144.28;;;7.14;53.35
59063;BME280;44851;45.648;9.004;2023-03-18T06:48:02;99147.38;;;7.19;53.53
59063;BME280;44851;45.648;9.004;2023-03-18T06:50:28;99140.78;;;7.38;55.23
59063;BME280;44851;45.648;9.004;2023-03-18T06:52:54;99135.13;;;7.44;54.00
59063;BME280;44851;45.648;9.004;2023-03-18T06:55:20;99146.94;;;7.48;53.19
59063;BME280;44851;45.648;9.004;2023-03-18T06:57:46;99142.94;;;7.55;53.16
59063;BME280;44851;45.648;9.004;2023-03-18T07:00:12;99143.19;;;7.63;53.49
59063;BME280;44851;45.648;9.004;2023-03-18T07:02:38;99144.88;;;7.76;53.32
59063;BME280;44851;45.648;9.004;2023-03-18T07:05:03;99151.00;;;7.86;53.02
59063;BME280;44851;45.648;9.004;2023-03-18T07:07:29;99147.34;;;7.99;52.93
59063;BME280;44851;45.648;9.004;2023-03-18T07:09:55;99147.69;;;8.06;52.95
59063;BME280;44851;45.648;9.004;2023-03-18T07:12:21;99140.84;;;8.05;52.93
59063;BME280;44851;45.648;9.004;2023-03-18T07:14:46;99146.19;;;8.47;53.44
59063;BME280;44851;45.648;9.004;2023-03-18T07:17:13;99154.56;;;8.83;52.90
59063;BME280;44851;45.648;9.004;2023-03-18T07:19:39;99158.22;;;9.12;52.60
59063;BME280;44851;45.648;9.004;2023-03-18T07:22:04;99159.06;;;9.13;51.21
59063;BME280;44851;45.648;9.004;2023-03-18T07:24:30;99158.47;;;9.09;50.61
59063;BME280;44851;45.648;9.004;2023-03-18T07:26:56;99153.22;;;9.41;49.71
59063;BME280;44851;45.648;9.004;2023-03-18T07:29:22;99156.34;;;9.56;49.98
59063;BME280;44851;45.648;9.004;2023-03-18T07:31:47;99156.53;;;10.04;50.65
59063;BME280;44851;45.648;9.004;2023-03-18T07:34:13;99151.13;;;10.37;48.87
59063;BME280;44851;45.648;9.004;2023-03-18T07:36:42;99154.22;;;10.61;49.16
59063;BME280;44851;45.648;9.004;2023-03-18T07:39:08;99151.78;;;10.89;46.51
59063;BME280;44851;45.648;9.004;2023-03-18T07:41:36;99158.34;;;11.22;46.67
59063;BME280;44851;45.648;9.004;2023-03-18T07:44:02;99155.78;;;11.59;47.43
59063;BME280;44851;45.648;9.004;2023-03-18T07:46:28;99152.59;;;11.65;44.96
59063;BME280;44851;45.648;9.004;2023-03-18T07:48:53;99164.34;;;11.88;45.46
59063;BME280;44851;45.648;9.004;2023-03-18T07:51:19;99172.06;;;11.80;44.88
59063;BME280;44851;45.648;9.004;2023-03-18T07:53:44;99162.75;;;12.15;45.50
59063;BME280;44851;45.648;9.004;2023-03-18T07:56:10;99170.13;;;12.20;45.08
59063;BME280;44851;45.648;9.004;2023-03-18T07:58:36;99169.66;;;12.52;47.64
59063;BME280;44851;45.648;9.004;2023-03-18T08:01:03;99169.22;;;12.56;45.81
59063;BME280;44851;45.648;9.004;2023-03-18T08:03:29;99164.63;;;12.68;43.47
59063;BME280;44851;45.648;9.004;2023-03-18T08:05:55;99173.34;;;12.77;43.85
59063;BME280;44851;45.648;9.004;2023-03-18T08:08:21;99172.31;;;12.69;42.49
59063;BME280;44851;45.648;9.004;2023-03-18T08:10:47;99174.56;;;13.00;45.52
59063;BME280;44851;45.648;9.004;2023-03-18T08:13:13;99181.06;;;13.14;44.32
59063;BME280;44851;45.648;9.004;2023-03-18T08:15:39;99180.25;;;13.13;42.17
59063;BME280;44851;45.648;9.004;2023-03-18T08:18:05;99177.59;;;13.31;41.76
59063;BME280;44851;45.648;9.004;2023-03-18T08:20:30;99185.09;;;13.70;41.88
59063;BME280;44851;45.648;9.004;2023-03-18T08:22:56;99177.44;;;13.85;39.84
59063;BME280;44851;45.648;9.004;2023-03-18T08:25:22;99180.31;;;13.99;39.63
59063;BME280;44851;45.648;9.004;2023-03-18T08:27:48;99180.19;;;14.09;38.43
59063;BME280;44851;45.648;9.004;2023-03-18T08:30:14;99176.38;;;14.30;38.08
59063;BME280;44851;45.648;9.004;2023-03-18T08:32:41;99182.81;;;14.51;40.11
59063;BME280;44851;45.648;9.004;2023-03-18T08:35:07;99175.44;;;14.47;36.73
59063;BME280;44851;45.648;9.004;2023-03-18T08:37:34;99175.31;;;14.65;37.29
59063;BME280;44851;45.648;9.004;2023-03-18T08:40:00;99188.13;;;14.84;37.54
59063;BME280;44851;45.648;9.004;2023-03-18T08:42:26;99183.91;;;14.99;36.18
59063;BME280;44851;45.648;9.004;2023-03-18T08:44:52;99190.28;;;15.05;33.60
59063;BME280;44851;45.648;9.004;2023-03-18T08:47:17;99194.88;;;15.11;34.25
59063;BME280;44851;45.648;9.004;2023-03-18T08:49:44;99188.19;;;15.33;35.47
59063;BME280;44851;45.648;9.004;2023-03-18T08:52:09;99184.53;;;15.01;32.75
59063;BME280;44851;45.648;9.004;2023-03-18T08:54:35;99190.44;;;14.95;32.80
59063;BME280;44851;45.648;9.004;2023-03-18T08:57:01;99181.97;;;15.26;34.54
59063;BME280;44851;45.648;9.004;2023-03-18T08:59:26;99184.28;;;15.29;34.98
59063;BME280;44851;45.648;9.004;2023-03-18T09:01:52;99182.25;;;15.07;32.97
59063;BME280;44851;45.648;9.004;2023-03-18T09:04:18;99189.13;;;14.91;33.02
59063;BME280;44851;45.648;9.004;2023-03-18T09:06:44;99184.41;;;15.44;33.37
59063;BME280;44851;45.648;9.004;2023-03-18T09:09:10;99184.19;;;15.70;34.32
59063;BME280;44851;45.648;9.004;2023-03-18T09:11:36;99179.66;;;15.31;35.09
59063;BME280;44851;45.648;9.004;2023-03-18T09:14:01;99174.94;;;15.90;33.77
59063;BME280;44851;45.648;9.004;2023-03-18T09:16:27;99175.50;;;16.17;36.35
59063;BME280;44851;45.648;9.004;2023-03-18T09:18:53;99173.72;;;15.53;32.33
59063;BME280;44851;45.648;9.004;2023-03-18T09:21:18;99185.41;;;16.06;35.72
59063;BME280;44851;45.648;9.004;2023-03-18T09:23:44;99167.69;;;15.92;32.63
59063;BME280;44851;45.648;9.004;2023-03-18T09:26:10;99177.34;;;16.08;32.15
59063;BME280;44851;45.648;9.004;2023-03-18T09:28:35;99183.97;;;16.35;33.53
59063;BME280;44851;45.648;9.004;2023-03-18T09:31:01;99167.53;;;16.41;32.37
59063;BME280;44851;45.648;9.004;2023-03-18T09:33:28;99169.78;;;16.52;31.57
59063;BME280;44851;45.648;9.004;2023-03-18T09:35:53;99176.47;;;16.24;31.47
59063;BME280;44851;45.648;9.004;2023-03-18T09:38:19;99173.16;;;16.61;32.94
59063;BME280;44851;45.648;9.004;2023-03-18T09:41:06;99176.19;;;16.73;32.44
59063;BME280;44851;45.648;9.004;2023-03-18T09:44:13;99180.97;;;17.00;32.47
59063;BME280;44851;45.648;9.004;2023-03-18T09:55:27;99178.56;;;16.68;30.41
59063;BME280;44851;45.648;9.004;2023-03-18T09:57:57;99185.22;;;17.01;31.37
59063;BME280;44851;45.648;9.004;2023-03-18T10:00:36;99184.75;;;17.21;30.13
59063;BME280;44851;45.648;9.004;2023-03-18T10:06:19;99181.31;;;17.20;29.97
59063;BME280;44851;45.648;9.004;2023-03-18T10:17:23;99184.19;;;17.33;29.25
59063;BME280;44851;45.648;9.004;2023-03-18T10:19:57;99185.47;;;16.92;29.66
59063;BME280;44851;45.648;9.004;2023-03-18T10:22:48;99184.22;;;17.02;29.68
59063;BME280;44851;45.648;9.004;2023-03-18T10:38:37;99191.84;;;17.58;30.03
59063;BME280;44851;45.648;9.004;2023-03-18T10:41:18;99186.03;;;17.62;30.36
59063;BME280;44851;45.648;9.004;2023-03-18T10:43:46;99184.59;;;17.60;31.12
59063;BME280;44851;45.648;9.004;2023-03-18T10:46:15;99184.19;;;18.01;30.77
59063;BME280;44851;45.648;9.004;2023-03-18T10:56:34;99175.75;;;17.68;29.31
59063;BME280;44851;45.648;9.004;2023-03-18T10:59:01;99169.41;;;17.77;28.98
59063;BME280;44851;45.648;9.004;2023-03-18T11:01:29;99161.53;;;18.06;28.85
59063;BME280;44851;45.648;9.004;2023-03-18T11:04:00;99169.13;;;18.16;30.39
59063;BME280;44851;45.648;9.004;2023-03-18T11:06:55;99160.69;;;18.21;28.92
59063;BME280;44851;45.648;9.004;2023-03-18T11:09:29;99152.88;;;18.12;27.46
59063;BME280;44851;45.648;9.004;2023-03-18T11:11:56;99152.88;;;18.12;28.74
59063;BME280;44851;45.648;9.004;2023-03-18T11:14:27;99167.00;;;18.41;29.84
59063;BME280;44851;45.648;9.004;2023-03-18T11:17:32;99157.66;;;18.38;27.95
59063;BME280;44851;45.648;9.004;2023-03-18T11:22:36;99160.09;;;18.40;26.86
59063;BME280;44851;45.648;9.004;2023-03-18T11:25:13;99160.81;;;18.12;28.11
59063;BME280;44851;45.648;9.004;2023-03-18T11:30:28;99156.22;;;18.57;27.55
59063;BME280;44851;45.648;9.004;2023-03-18T11:35:22;99148.84;;;18.89;28.98
59063;BME280;44851;45.648;9.004;2023-03-18T11:37:48;99135.97;;;19.29;28.60
59063;BME280;44851;45.648;9.004;2023-03-18T11:42:43;99132.44;;;19.21;27.29
59063;BME280;44851;45.648;9.004;2023-03-18T11:45:33;99126.38;;;19.00;27.72
59063;BME280;44851;45.648;9.004;2023-03-18T11:47:59;99120.38;;;18.84;26.81
59063;BME280;44851;45.648;9.004;2023-03-18T11:50:34;99110.56;;;18.42;26.87
59063;BME280;44851;45.648;9.004;2023-03-18T11:53:15;99114.75;;;18.94;26.80
59063;BME280;44851;45.648;9.004;2023-03-18T11:55:51;99118.28;;;18.80;27.48
59063;BME280;44851;45.648;9.004;2023-03-18T12:01:32;99106.97;;;18.86;26.57
59063;BME280;44851;45.648;9.004;2023-03-18T12:09:55;99109.34;;;18.02;28.10
59063;BME280;44851;45.648;9.004;2023-03-18T12:13:17;99109.66;;;18.13;27.84
59063;BME280;44851;45.648;9.004;2023-03-18T12:21:29;99096.00;;;18.46;27.52
59063;BME280;44851;45.648;9.004;2023-03-18T12:28:02;99083.56;;;18.61;26.60
59063;BME280;44851;45.648;9.004;2023-03-18T12:33:04;99093.94;;;18.41;27.79
59063;BME280;44851;45.648;9.004;2023-03-18T12:46:22;99090.22;;;18.36;27.05
59063;BME280;44851;45.648;9.004;2023-03-18T12:49:15;99091.56;;;18.10;28.26
59063;BME280;44851;45.648;9.004;2023-03-18T12:54:31;99080.53;;;18.86;27.61
59063;BME280;44851;45.648;9.004;2023-03-18T12:57:02;99072.13;;;18.76;27.53
59063;BME280;44851;45.648;9.004;2023-03-18T13:00:00;99081.00;;;18.89;26.26
59063;BME280;44851;45.648;9.004;2023-03-18T13:02:41;99086.06;;;18.69;26.08
59063;BME280;44851;45.648;9.004;2023-03-18T13:05:46;99078.63;;;18.15;28.94
59063;BME280;44851;45.648;9.004;2023-03-18T13:13:53;99077.16;;;18.71;27.70
59063;BME280;44851;45.648;9.004;2023-03-18T13:16:21;99074.84;;;18.61;28.12
59063;BME280;44851;45.648;9.004;2023-03-18T13:18:51;99074.69;;;18.26;27.52
59063;BME280;44851;45.648;9.004;2023-03-18T13:21:24;99072.63;;;18.43;27.73
59063;BME280;44851;45.648;9.004;2023-03-18T13:43:26;99058.31;;;18.52;26.99
59063;BME280;44851;45.648;9.004;2023-03-18T13:45:54;99058.94;;;18.76;27.25
59063;BME280;44851;45.648;9.004;2023-03-18T13:48:29;99059.41;;;18.86;26.66
59063;BME280;44851;45.648;9.004;2023-03-18T13:50:57;99056.63;;;18.87;26.75
59063;BME280;44851;45.648;9.004;2023-03-18T13:53:33;99045.78;;;19.10;28.23
59063;BME280;44851;45.648;9.004;2023-03-18T13:56:05;99038.28;;;18.86;26.64
59063;BME280;44851;45.648;9.004;2023-03-18T13:58:42;99048.50;;;18.46;25.62
59063;BME280;44851;45.648;9.004;2023-03-18T14:09:45;99037.69;;;18.62;25.96
59063;BME280;44851;45.648;9.004;2023-03-18T14:12:40;99035.91;;;18.48;26.28
59063;BME280;44851;45.648;9.004;2023-03-18T14:22:42;99026.50;;;18.60;25.86
59063;BME280;44851;45.648;9.004;2023-03-18T14:27:54;99016.72;;;18.33;25.24
59063;BME280;44851;45.648;9.004;2023-03-18T14:32:58;99017.19;;;18.43;25.83
59063;BME280;44851;45.648;9.004;2023-03-18T14:38:08;99013.19;;;18.47;26.40
59063;BME280;44851;45.648;9.004;2023-03-18T14:40:47;99006.91;;;18.27;24.99
59063;BME280;44851;45.648;9.004;2023-03-18T14:46:01;98998.97;;;18.05;25.11
59063;BME280;44851;45.648;9.004;2023-03-18T14:48:34;98987.31;;;18.14;26.11
59063;BME280;44851;45.648;9.004;2023-03-18T14:51:07;98990.88;;;17.71;25.63
59063;BME280;44851;45.648;9.004;2023-03-18T14:54:05;99001.94;;;17.45;26.89
59063;BME280;44851;45.648;9.004;2023-03-18T14:56:40;98996.94;;;17.35;25.87
59063;BME280;44851;45.648;9.004;2023-03-18T14:59:13;98998.88;;;17.26;25.83
59063;BME280;44851;45.648;9.004;2023-03-18T15:01:43;98992.22;;;17.16;25.84
59063;BME280;44851;45.648;9.004;2023-03-18T15:04:18;98994.06;;;16.77;26.41
59063;BME280;44851;45.648;9.004;2023-03-18T15:06:47;99000.13;;;16.78;26.23
59063;BME280;44851;45.648;9.004;2023-03-18T15:09:17;98995.72;;;16.78;25.63
59063;BME280;44851;45.648;9.004;2023-03-18T15:11:46;99001.97;;;16.92;26.25
59063;BME280;44851;45.648;9.004;2023-03-18T15:14:18;99003.47;;;17.09;26.51
59063;BME280;44851;45.648;9.004;2023-03-18T15:16:51;98994.03;;;17.30;26.39
59063;BME280;44851;45.648;9.004;2023-03-18T15:19:17;98993.06;;;17.16;24.99
59063;BME280;44851;45.648;9.004;2023-03-18T15:21:43;98989.31;;;17.10;26.47
59063;BME280;44851;45.648;9.004;2023-03-18T15:24:14;98982.41;;;17.39;26.64
59063;BME280;44851;45.648;9.004;2023-03-18T15:26:41;98973.16;;;17.28;27.01
59063;BME280;44851;45.648;9.004;2023-03-18T15:29:32;98983.44;;;16.71;27.26
59063;BME280;44851;45.648;9.004;2023-03-18T15:32:07;98977.91;;;16.80;27.69
59063;BME280;44851;45.648;9.004;2023-03-18T15:34:39;98987.69;;;16.72;28.11
59063;BME280;44851;45.648;9.004;2023-03-18T15:40:32;98985.72;;;16.74;27.46
59063;BME280;44851;45.648;9.004;2023-03-18T15:45:33;98988.34;;;16.74;27.65
59063;BME280;44851;45.648;9.004;2023-03-18T15:48:04;98987.78;;;16.64;27.10
59063;BME280;44851;45.648;9.004;2023-03-18T15:50:33;98983.16;;;16.28;26.92
59063;BME280;44851;45.648;9.004;2023-03-18T15:53:14;98985.94;;;16.49;27.23
59063;BME280;44851;45.648;9.004;2023-03-18T15:55:50;98990.84;;;16.52;28.00